Airfield :
LOGIN :

Register | Disclaimer

   EN    FR    IT 

 










Legend :    VFR   Marginal VFR   IFR   Intensive IFR   Very Intensive IFR
Visi :
Ceiling :
>= 8 km
>= 3000ft
5 to 8 km
1000 to 3000 ft
1500m to 5 km
500 to 1000 ft
800 to 1500m
200 to 500 ft
< 800m
< 200 ft
Symbols :   Thunderstorms  Fog  Heavy snow  Heavy precipitations  Wind > 20 kt
SIGMETs :     Misc.  Thunderstorms  Icing  Turbulence  Mountain Waves  Volcanic Ashes







- Airport Elevation : 1106 ft
- Download approach charts


LFSO - Nancy / Ochey

CURRENT METAR :
  • 240000Z AUTO 19013KT 9999 SCT046 BKN054 OVC064 12/07 Q1013

EXPIRED METARs :
  • 232330Z AUTO 19012KT 9999 FEW043 BKN054 12/07 Q1013
  • 232300Z AUTO 19012KT 9999 BKN042 BKN052 11/07 Q1013 NOSIG
  • 232230Z AUTO 19010KT 9999 FEW046 BKN240 11/07 Q1013 NOSIG
  • 232200Z AUTO 20012KT 9999 FEW049 11/07 Q1013 NOSIG
  • 232130Z AUTO 20010KT 9999 BKN048 11/07 Q1013 NOSIG

TAF TAF LFSO
Valid from the 23 at 21:00 until the 24 at 21:00 UTC


232000Z 2321/2421 20010G20KT CAVOK
BECMG 2414/2416 19010KT
TEMPO 2416/2421 4000 -RA BKN014
No reported NOTAMs for that airfield.



MET'MAP, your aeronautical weather chart ! - Copyright ORBIFLY December 2007 - Disclaimer

ORBIFLY MET'MAP TEAM :

Programming & Development : Alexandra Zaïnal
Concept & Development : Baudouin d'Aumeries
Co-Development & Prog : Marc-Olivier Méhu
Technical & hardware support : Manuel Goepfert

Contact : metmap@orbifly.com




SOURCES & CREDITS :

   NOAA